createdAt,value
2022-08-07T00:02:36.593Z,33.90
2022-08-07T00:05:05.738Z,33.53
2022-08-07T00:07:40.317Z,33.61
2022-08-07T00:10:27.162Z,33.57
2022-08-07T00:13:00.636Z,33.82
2022-08-07T00:15:38.002Z,34.40
2022-08-07T00:18:19.874Z,33.86
2022-08-07T00:20:49.793Z,33.98
2022-08-07T00:23:17.729Z,34.28
2022-08-07T00:25:51.818Z,34.32
2022-08-07T00:28:33.790Z,34.39
2022-08-07T00:31:05.761Z,34.28
2022-08-07T00:33:35.962Z,34.34
2022-08-07T00:36:04.732Z,34.40
2022-08-07T00:38:33.307Z,34.13
2022-08-07T00:41:01.794Z,34.14
2022-08-07T00:44:01.496Z,34.46
2022-08-07T00:46:17.017Z,34.65
2022-08-07T00:48:45.330Z,34.40
2022-08-07T00:51:17.598Z,34.31
2022-08-07T00:53:50.852Z,34.38
2022-08-07T00:56:30.147Z,34.39
2022-08-07T00:58:59.275Z,34.54
2022-08-07T01:01:26.900Z,34.24
2022-08-07T01:04:00.335Z,34.70
2022-08-07T01:06:30.022Z,34.89
2022-08-07T01:09:00.720Z,34.76
2022-08-07T01:12:23.278Z,34.92
2022-08-07T01:14:21.115Z,34.72
2022-08-07T01:16:56.091Z,34.61
2022-08-07T01:19:25.449Z,34.69
2022-08-07T01:21:55.657Z,34.93
2022-08-07T01:24:32.139Z,34.80
2022-08-07T01:27:01.598Z,34.70
2022-08-07T01:29:31.499Z,35.11
2022-08-07T01:32:05.327Z,34.90
2022-08-07T01:34:35.377Z,34.79
2022-08-07T01:37:09.815Z,34.92
2022-08-07T01:39:46.424Z,35.28
2022-08-07T01:42:57.293Z,35.40
2022-08-07T01:45:36.847Z,35.88
2022-08-07T01:48:18.601Z,36.14
2022-08-07T01:51:24.044Z,36.38
2022-08-07T01:54:09.385Z,36.02
2022-08-07T01:56:55.338Z,36.27
2022-08-07T01:59:30.908Z,36.37
2022-08-07T02:02:12.036Z,37.02
2022-08-07T02:05:47.497Z,37.29
2022-08-07T02:08:19.686Z,36.96
2022-08-07T02:10:57.998Z,36.92
2022-08-07T02:13:58.168Z,36.84
2022-08-07T02:16:33.201Z,36.57
2022-08-07T02:20:07.444Z,36.97
2022-08-07T02:21:58.875Z,36.52
2022-08-07T02:24:30.213Z,36.64
2022-08-07T02:27:05.100Z,36.73
2022-08-07T02:29:36.853Z,36.72
2022-08-07T02:32:19.342Z,37.01
2022-08-07T02:34:53.014Z,36.84
2022-08-07T02:37:27.109Z,36.95
2022-08-07T02:40:11.881Z,36.96
2022-08-07T02:42:46.888Z,36.37
2022-08-07T02:45:57.707Z,35.67
2022-08-07T02:48:10.356Z,34.93
2022-08-07T02:50:48.995Z,34.45
2022-08-07T02:53:27.638Z,33.39
2022-08-07T02:56:04.395Z,33.54
2022-08-07T02:58:39.869Z,32.84
2022-08-07T03:01:19.108Z,32.54
2022-08-07T03:04:12.584Z,31.67
2022-08-07T03:06:44.662Z,31.57
2022-08-07T03:09:41.783Z,30.68
2022-08-07T03:12:08.126Z,30.62
2022-08-07T03:14:52.182Z,30.32
2022-08-07T03:17:22.134Z,29.77
2022-08-07T03:19:54.699Z,29.51
2022-08-07T03:22:30.411Z,29.01
2022-08-07T03:25:01.771Z,28.75
2022-08-07T03:27:58.745Z,28.87
2022-08-07T03:30:27.721Z,28.01
2022-08-07T03:32:59.362Z,28.11
2022-08-07T03:35:44.057Z,27.61
2022-08-07T03:38:20.929Z,27.16
2022-08-07T03:40:57.476Z,27.25
2022-08-07T03:43:32.246Z,26.83
2022-08-07T03:46:04.106Z,26.30
2022-08-07T03:48:45.390Z,26.19
2022-08-07T03:51:30.698Z,25.90
2022-08-07T03:54:33.261Z,25.92
2022-08-07T03:57:03.379Z,25.39
2022-08-07T03:59:35.547Z,25.10
2022-08-07T04:02:03.726Z,24.94
2022-08-07T04:04:32.750Z,24.71
2022-08-07T04:07:16.669Z,25.60
2022-08-07T04:09:50.533Z,25.57
2022-08-07T04:12:27.576Z,26.31
2022-08-07T04:15:00.234Z,26.49
2022-08-07T04:18:30.921Z,27.38
2022-08-07T04:20:21.624Z,27.50
2022-08-07T04:22:53.390Z,27.25
2022-08-07T04:25:24.202Z,27.32
2022-08-07T04:28:00.318Z,26.92
2022-08-07T04:30:39.386Z,26.12
2022-08-07T04:33:20.030Z,25.62
2022-08-07T04:35:53.265Z,25.06
2022-08-07T04:38:26.922Z,24.54
2022-08-07T04:40:56.786Z,23.74
2022-08-07T04:44:10.687Z,23.83
2022-08-07T04:47:04.575Z,22.83
2022-08-07T04:50:03.457Z,23.05
2022-08-07T04:52:52.470Z,22.52
2022-08-07T04:58:10.150Z,22.64
2022-08-07T04:59:18.449Z,21.84
2022-08-07T05:01:47.246Z,22.23
2022-08-07T05:04:47.351Z,20.71
2022-08-07T05:07:30.506Z,20.72
2022-08-07T05:10:11.791Z,20.82
2022-08-07T05:12:56.094Z,20.79
2022-08-07T05:15:36.367Z,20.38
2022-08-07T05:18:10.372Z,19.81
2022-08-07T05:20:45.404Z,20.02
2022-08-07T05:23:19.653Z,19.00
2022-08-07T05:26:13.242Z,18.91
2022-08-07T05:28:48.647Z,18.45
2022-08-07T05:31:23.453Z,18.23
2022-08-07T05:34:04.585Z,18.53
2022-08-07T05:36:39.215Z,17.95
2022-08-07T05:40:14.320Z,17.44
2022-08-07T05:42:08.901Z,17.46
2022-08-07T05:44:52.799Z,17.73
2022-08-07T05:47:38.553Z,17.59
2022-08-07T05:50:21.559Z,17.54
2022-08-07T05:52:50.229Z,17.39
2022-08-07T05:55:18.028Z,17.25
2022-08-07T05:57:47.985Z,16.88
2022-08-07T06:00:18.191Z,16.62
2022-08-07T06:03:02.152Z,16.17
2022-08-07T06:05:32.478Z,16.30
2022-08-07T06:08:13.319Z,16.25
2022-08-07T06:10:54.870Z,15.95
2022-08-07T06:14:10.311Z,15.96
2022-08-07T06:16:15.360Z,16.10
2022-08-07T06:18:55.518Z,15.96
2022-08-07T06:22:16.649Z,16.02
2022-08-07T06:24:48.210Z,15.82
2022-08-07T06:27:03.749Z,15.27
2022-08-07T06:29:38.800Z,14.98
2022-08-07T06:32:08.489Z,14.26
2022-08-07T06:34:36.035Z,14.43
2022-08-07T06:37:09.020Z,14.52
2022-08-07T06:40:15.906Z,14.03
2022-08-07T06:42:36.916Z,13.97
2022-08-07T06:45:37.243Z,13.56
2022-08-07T06:48:06.920Z,13.20
2022-08-07T06:50:47.776Z,13.21
2022-08-07T06:54:12.198Z,12.79
2022-08-07T06:56:15.075Z,12.81
2022-08-07T07:00:13.921Z,12.72
2022-08-07T07:01:48.901Z,12.00
2022-08-07T07:04:28.488Z,12.64
2022-08-07T07:07:10.460Z,12.19
2022-08-07T07:09:48.970Z,12.10
2022-08-07T07:12:33.631Z,11.68
2022-08-07T07:15:08.589Z,11.81
2022-08-07T07:18:02.163Z,12.03
2022-08-07T07:21:13.306Z,11.84
2022-08-07T07:24:08.949Z,12.08
2022-08-07T07:26:37.237Z,11.70
2022-08-07T07:29:55.815Z,11.78
2022-08-07T07:32:11.888Z,12.39
2022-08-07T07:34:50.004Z,12.78
2022-08-07T07:37:45.377Z,12.88
2022-08-07T07:40:10.242Z,13.39
2022-08-07T07:42:53.825Z,13.59
2022-08-07T07:46:38.104Z,14.21
2022-08-07T07:48:35.324Z,14.23
2022-08-07T07:51:07.573Z,14.99
2022-08-07T07:53:52.060Z,14.88
2022-08-07T07:56:30.285Z,15.10
2022-08-07T07:59:06.213Z,15.23
2022-08-07T08:02:02.170Z,15.36
2022-08-07T08:04:25.891Z,15.67
2022-08-07T08:06:54.564Z,15.60
2022-08-07T08:09:29.480Z,15.58
2022-08-07T08:12:02.003Z,15.68
2022-08-07T08:14:34.147Z,16.05
2022-08-07T08:17:55.599Z,15.97
2022-08-07T08:20:17.081Z,16.02
2022-08-07T08:23:09.382Z,15.85
2022-08-07T08:26:03.369Z,16.15
2022-08-07T08:28:39.171Z,16.03
2022-08-07T08:31:16.326Z,16.22
2022-08-07T08:33:55.824Z,15.89
2022-08-07T08:36:30.322Z,16.17
2022-08-07T08:39:01.925Z,16.19
2022-08-07T08:41:57.170Z,16.24
2022-08-07T08:45:05.938Z,16.49
2022-08-07T08:47:52.512Z,16.44
2022-08-07T08:50:39.280Z,16.57
2022-08-07T08:53:29.283Z,16.33
2022-08-07T08:56:10.936Z,16.28
2022-08-07T08:59:13.741Z,16.34
2022-08-07T09:01:49.178Z,16.24
2022-08-07T09:04:30.344Z,15.64
2022-08-07T09:07:11.559Z,15.24
2022-08-07T09:10:06.588Z,15.67
2022-08-07T09:13:02.388Z,15.09
2022-08-07T09:16:22.936Z,15.06
2022-08-07T09:19:52.095Z,15.33
2022-08-07T09:22:37.050Z,15.32
2022-08-07T09:25:07.003Z,15.14
2022-08-07T09:28:04.297Z,14.94
2022-08-07T09:31:08.520Z,14.89
2022-08-07T09:33:57.866Z,14.45
2022-08-07T09:36:35.661Z,15.11
2022-08-07T09:39:54.663Z,15.50
2022-08-07T09:42:41.132Z,15.75
2022-08-07T09:47:23.828Z,15.21
2022-08-07T09:48:08.802Z,14.97
2022-08-07T09:52:09.240Z,14.98
2022-08-07T09:54:07.112Z,15.31
2022-08-07T09:56:53.977Z,14.55
2022-08-07T09:59:21.960Z,14.33
2022-08-07T10:02:19.131Z,13.76
2022-08-07T10:05:16.285Z,13.76
2022-08-07T10:08:04.670Z,13.18
2022-08-07T10:12:00.483Z,13.19
2022-08-07T10:14:11.107Z,12.94
2022-08-07T10:17:14.496Z,13.13
2022-08-07T10:19:49.491Z,12.97
2022-08-07T10:22:51.174Z,12.88
2022-08-07T10:25:44.539Z,12.73
2022-08-07T10:28:36.579Z,12.75
2022-08-07T10:31:39.061Z,13.18
2022-08-07T10:34:27.035Z,13.97
2022-08-07T10:37:48.702Z,13.42
2022-08-07T10:40:30.593Z,13.99
2022-08-07T10:43:02.695Z,13.79
2022-08-07T10:45:57.081Z,14.48
2022-08-07T10:48:51.531Z,14.30
2022-08-07T10:51:39.303Z,14.27
2022-08-07T10:54:15.640Z,14.34
2022-08-07T10:57:22.104Z,14.11
2022-08-07T11:00:39.240Z,13.63
2022-08-07T11:03:15.129Z,13.85
2022-08-07T11:05:50.880Z,13.45
2022-08-07T11:08:46.026Z,13.32
2022-08-07T11:11:24.780Z,14.08
2022-08-07T11:14:45.970Z,14.10
2022-08-07T11:17:13.525Z,14.28
2022-08-07T11:20:03.356Z,14.60
2022-08-07T11:22:45.639Z,14.62
2022-08-07T11:25:23.890Z,14.29
2022-08-07T11:28:15.621Z,13.88
2022-08-07T11:30:50.937Z,14.42
2022-08-07T11:33:59.096Z,13.68
2022-08-07T11:36:25.386Z,13.73
2022-08-07T11:39:39.668Z,13.72
2022-08-07T11:42:37.493Z,13.40
2022-08-07T11:45:35.898Z,13.51
2022-08-07T11:48:18.024Z,13.71
2022-08-07T11:51:41.222Z,13.20
2022-08-07T11:54:55.041Z,13.54
2022-08-07T11:57:59.757Z,13.38
2022-08-07T12:01:05.113Z,13.88
2022-08-07T12:03:46.097Z,13.42
2022-08-07T12:06:55.359Z,13.14
2022-08-07T12:09:48.990Z,13.82
2022-08-07T12:12:25.515Z,13.70
2022-08-07T12:15:01.366Z,13.31
2022-08-07T12:17:59.739Z,13.63
2022-08-07T12:20:46.347Z,13.77
2022-08-07T12:24:06.105Z,13.57
2022-08-07T12:26:46.849Z,13.66
2022-08-07T12:29:38.376Z,13.67
2022-08-07T12:32:21.196Z,13.88
2022-08-07T12:34:55.597Z,14.51
2022-08-07T12:37:28.304Z,13.96
2022-08-07T12:40:44.896Z,13.81
2022-08-07T12:43:09.675Z,13.97
2022-08-07T12:45:56.973Z,14.56
2022-08-07T12:48:53.153Z,14.21
2022-08-07T12:51:33.450Z,14.06
2022-08-07T12:54:41.309Z,14.11
2022-08-07T12:57:11.281Z,13.86
2022-08-07T12:59:54.213Z,14.58
2022-08-07T13:02:49.468Z,13.96
2022-08-07T13:06:03.000Z,14.35
2022-08-07T13:08:43.330Z,14.32
2022-08-07T13:12:01.853Z,14.17
2022-08-07T13:14:55.389Z,14.22
2022-08-07T13:17:42.483Z,14.30
2022-08-07T13:20:21.811Z,14.33
2022-08-07T13:24:00.158Z,14.29
2022-08-07T13:26:18.398Z,14.55
2022-08-07T13:29:09.937Z,14.89
2022-08-07T13:31:57.604Z,14.82
2022-08-07T13:34:36.257Z,14.25
2022-08-07T13:37:22.322Z,14.39
2022-08-07T13:40:35.034Z,14.59
2022-08-07T13:42:53.414Z,14.87
2022-08-07T13:46:10.906Z,14.66
2022-08-07T13:48:27.911Z,15.05
2022-08-07T13:51:20.423Z,15.07
2022-08-07T13:54:00.181Z,14.58
2022-08-07T13:56:35.815Z,14.61
2022-08-07T13:59:27.263Z,14.98
2022-08-07T14:02:04.780Z,15.09
2022-08-07T14:04:47.417Z,15.52
2022-08-07T14:07:23.074Z,15.52
2022-08-07T14:10:02.488Z,15.36
2022-08-07T14:12:49.480Z,15.01
2022-08-07T14:15:42.586Z,15.38
2022-08-07T14:18:30.752Z,15.54
2022-08-07T14:21:20.651Z,15.03
2022-08-07T14:24:01.947Z,15.17
2022-08-07T14:26:37.570Z,15.55
2022-08-07T14:30:07.112Z,15.21
2022-08-07T14:32:03.644Z,15.84
2022-08-07T14:34:33.718Z,15.63
2022-08-07T14:37:03.726Z,15.80
2022-08-07T14:40:14.834Z,16.85
2022-08-07T14:45:21.917Z,17.01
2022-08-07T14:48:07.762Z,17.15
2022-08-07T14:50:42.454Z,16.71
2022-08-07T14:53:11.422Z,16.97
2022-08-07T14:58:35.902Z,17.54
2022-08-07T15:03:53.696Z,17.21
2022-08-07T15:06:26.206Z,17.39
2022-08-07T15:08:55.742Z,17.03
2022-08-07T15:11:53.482Z,17.40
2022-08-07T15:14:22.917Z,17.77
2022-08-07T15:17:11.716Z,17.27
2022-08-07T15:23:17.077Z,17.92
2022-08-07T15:25:55.625Z,18.19
2022-08-07T15:28:34.749Z,17.98
2022-08-07T15:31:08.661Z,18.38
2022-08-07T15:39:17.749Z,18.10
2022-08-07T15:44:52.569Z,18.18
2022-08-07T15:51:01.480Z,18.57
2022-08-07T15:53:11.850Z,18.70
2022-08-07T15:55:53.838Z,18.67
2022-08-07T15:58:40.419Z,18.79
2022-08-07T16:01:20.498Z,18.61
2022-08-07T16:03:58.251Z,18.73
2022-08-07T16:06:49.471Z,18.61
2022-08-07T16:09:22.816Z,18.79
2022-08-07T16:12:12.268Z,19.24
2022-08-07T16:15:05.785Z,19.39
2022-08-07T16:18:01.429Z,19.16
2022-08-07T16:21:42.988Z,19.78
2022-08-07T16:24:03.668Z,19.16
2022-08-07T16:26:59.537Z,19.21
2022-08-07T16:30:09.994Z,19.42
2022-08-07T16:32:54.587Z,19.67
2022-08-07T16:35:56.561Z,19.95
2022-08-07T16:39:00.995Z,20.08
2022-08-07T16:41:54.470Z,19.56
2022-08-07T16:45:03.838Z,19.60
2022-08-07T16:47:55.864Z,19.82
2022-08-07T16:51:21.591Z,19.90
2022-08-07T16:54:32.508Z,19.85
2022-08-07T16:58:03.009Z,19.95
2022-08-07T17:00:14.990Z,19.76
2022-08-07T17:03:06.324Z,19.81
2022-08-07T17:06:19.073Z,19.58
2022-08-07T17:09:14.274Z,19.67
2022-08-07T17:12:04.680Z,19.74
2022-08-07T17:14:50.233Z,19.46
2022-08-07T17:17:44.237Z,19.92
2022-08-07T17:20:31.667Z,19.46
2022-08-07T17:23:35.337Z,19.75
2022-08-07T17:26:23.603Z,19.28
2022-08-07T17:29:07.737Z,19.79
2022-08-07T17:31:44.381Z,19.87
2022-08-07T17:34:40.939Z,20.01
2022-08-07T17:38:09.491Z,19.72
2022-08-07T17:40:32.194Z,19.73
2022-08-07T17:44:01.793Z,20.33
2022-08-07T17:46:36.222Z,20.63
2022-08-07T17:49:24.133Z,20.55
2022-08-07T17:52:14.112Z,20.22
2022-08-07T17:54:53.707Z,20.18
2022-08-07T17:57:58.540Z,21.13
2022-08-07T18:00:49.211Z,21.32
2022-08-07T18:04:04.412Z,21.51
2022-08-07T18:06:38.453Z,21.43
2022-08-07T18:09:08.660Z,22.03
2022-08-07T18:12:16.133Z,22.37
2022-08-07T18:15:02.206Z,22.39
2022-08-07T18:18:46.614Z,23.21
2022-08-07T18:21:57.825Z,23.21
2022-08-07T18:25:24.120Z,23.55
2022-08-07T18:28:12.404Z,23.71
2022-08-07T18:30:56.289Z,24.05
2022-08-07T18:33:58.530Z,23.99
2022-08-07T18:37:14.560Z,24.55
2022-08-07T18:40:42.572Z,24.62
2022-08-07T18:43:15.945Z,24.66
2022-08-07T18:46:24.649Z,24.77
2022-08-07T18:50:31.520Z,25.17
2022-08-07T18:52:25.462Z,25.00
2022-08-07T18:55:42.867Z,25.05
2022-08-07T18:58:14.727Z,24.98
2022-08-07T19:01:02.076Z,25.36
2022-08-07T19:03:43.755Z,25.30
2022-08-07T19:06:21.660Z,25.47
2022-08-07T19:09:55.512Z,25.30
2022-08-07T19:12:35.241Z,25.64
2022-08-07T19:16:04.216Z,25.69
2022-08-07T19:18:36.717Z,25.94
2022-08-07T19:21:51.043Z,25.77
2022-08-07T19:24:30.959Z,26.16
2022-08-07T19:28:58.401Z,26.11
2022-08-07T19:31:00.136Z,26.20
2022-08-07T19:32:51.291Z,26.38
2022-08-07T19:35:23.589Z,26.50
2022-08-07T19:37:58.152Z,26.66
2022-08-07T19:40:37.018Z,26.89
2022-08-07T19:43:43.923Z,27.06
2022-08-07T19:46:10.886Z,26.94
2022-08-07T19:48:42.732Z,26.83
2022-08-07T19:51:19.832Z,27.01
2022-08-07T19:54:31.046Z,27.11
2022-08-07T19:58:02.455Z,27.64
2022-08-07T19:59:40.981Z,27.73
2022-08-07T20:02:19.744Z,27.63
2022-08-07T20:04:50.529Z,27.45
2022-08-07T20:07:46.340Z,27.88
2022-08-07T20:10:37.886Z,28.01
2022-08-07T20:13:22.697Z,28.31
2022-08-07T20:15:57.874Z,28.31
2022-08-07T20:18:32.752Z,28.50
2022-08-07T20:21:21.571Z,28.95
2022-08-07T20:24:04.372Z,29.12
2022-08-07T20:26:44.975Z,29.21
2022-08-07T20:29:48.146Z,28.92
2022-08-07T20:32:11.403Z,28.86
2022-08-07T20:34:53.175Z,29.36
2022-08-07T20:37:29.794Z,29.52
2022-08-07T20:40:05.591Z,29.57
2022-08-07T20:42:57.803Z,29.46
2022-08-07T20:45:33.108Z,29.93
2022-08-07T20:48:29.022Z,29.82
2022-08-07T20:51:01.477Z,30.69
2022-08-07T20:54:03.851Z,30.84
2022-08-07T20:56:32.331Z,31.48
2022-08-07T20:59:05.415Z,31.10
2022-08-07T21:01:45.216Z,31.15
2022-08-07T21:04:27.862Z,31.22
2022-08-07T21:07:04.443Z,31.47
2022-08-07T21:09:52.959Z,31.43
2022-08-07T21:12:31.853Z,31.18
2022-08-07T21:15:05.969Z,31.57
2022-08-07T21:18:03.912Z,32.05
2022-08-07T21:20:33.117Z,32.16
2022-08-07T21:23:15.395Z,32.88
2022-08-07T21:25:56.865Z,32.69
2022-08-07T21:28:51.075Z,32.50
2022-08-07T21:32:03.700Z,33.26
2022-08-07T21:35:17.697Z,33.42
2022-08-07T21:38:19.590Z,33.77
2022-08-07T21:41:10.085Z,33.01
2022-08-07T21:43:57.471Z,33.40
2022-08-07T21:46:49.922Z,33.46
2022-08-07T21:50:02.881Z,33.76
2022-08-07T21:52:42.842Z,33.45
2022-08-07T21:55:19.522Z,33.30
2022-08-07T21:58:32.427Z,34.04
2022-08-07T22:01:14.100Z,34.02
2022-08-07T22:04:00.613Z,34.61
2022-08-07T22:06:37.523Z,34.23
2022-08-07T22:09:17.774Z,34.24
2022-08-07T22:12:05.099Z,34.16
2022-08-07T22:16:43.805Z,34.74
2022-08-07T22:18:35.900Z,35.14
2022-08-07T22:21:24.100Z,35.00
2022-08-07T22:24:33.159Z,35.32
2022-08-07T22:27:34.222Z,35.32
2022-08-07T22:30:16.860Z,35.47
2022-08-07T22:33:52.533Z,35.69
2022-08-07T22:36:23.859Z,34.99
2022-08-07T22:39:30.415Z,35.73
2022-08-07T22:42:25.963Z,35.38
2022-08-07T22:45:02.269Z,35.43
2022-08-07T22:48:31.293Z,35.65
2022-08-07T22:51:04.611Z,36.09
2022-08-07T22:54:07.982Z,36.26
2022-08-07T22:57:05.483Z,36.31
2022-08-07T22:59:49.735Z,35.81
2022-08-07T23:02:32.097Z,35.92
2022-08-07T23:06:07.201Z,35.95
2022-08-07T23:08:14.760Z,36.12
2022-08-07T23:11:12.883Z,36.24
2022-08-07T23:14:10.775Z,36.04
2022-08-07T23:17:04.033Z,36.49
2022-08-07T23:20:21.561Z,36.34
2022-08-07T23:24:05.177Z,36.17
2022-08-07T23:27:07.887Z,36.59
2022-08-07T23:30:37.497Z,36.36
2022-08-07T23:34:23.883Z,36.38
2022-08-07T23:37:17.940Z,36.72
2022-08-07T23:39:59.046Z,36.44
2022-08-07T23:42:39.923Z,37.09
2022-08-07T23:45:33.390Z,37.15
2022-08-07T23:49:00.616Z,37.07
2022-08-07T23:53:01.774Z,36.88
2022-08-07T23:54:44.607Z,37.07
2022-08-07T23:57:37.242Z,37.18
